Utklippan, Sweden

2:32 PM CEST on September 22, 2014 (GMT +0200)
IBLEKING8 | Change Station
CLOSE
Current Station
Personal Weather Station
Location: Karlskrona, Blekinge Lan
Elevation: 5 ft
Nearby Weather Stations

Elev 5 ft 56.20 °N, 15.54 °E | Updated 2 minutes ago

Overcast
Overcast
57.9 °F
Feels Like 57.9 °F
N
5.0
Wind Variable Wind from NNW
Gusts 8.0 mph

Today
High -- | Low -- °F
--% Chance of Precip.
Yesterday
High -- | Low -- °F
Precip. -- in
6:42 AM 6:56 PM
Waning Crescent, 3% visible
Pressure 29.65 in
Visibility 3.1 miles
Clouds Few 700 ft
Mostly Cloudy 1500 ft
Dew Point 45 °F
Humidity 63%
Rainfall 0.00 in
Snow Depth Not available.
UV 0.0 out of 12
Pollen Not available.
Air Quality Not available.
Flu Activity Not available.
METAR ESDF 221220Z 34008KT 310V010 5000 -SHRA FEW007 BKN015 12/10 Q1004

More Conditions Fewer Conditions

Pressure 29.65 in
Visibility 3.1 miles
Clouds Few 700 ft
Mostly Cloudy 1500 ft
Dew Point 45 °F
Humidity 63%
Rainfall 0.00 in
Snow Depth Not available.
UV 0.0 out of 12
Pollen Not available.
Air Quality Not available.
Flu Activity Not available.
METAR ESDF 221220Z 34008KT 310V010 5000 -SHRA FEW007 BKN015 12/10 Q1004

More Conditions Fewer Conditions

10-Day Weather Forecast

Almanac

Astronomy

Sep. 22, 2014 Rise Set
Actual Time 6:42 AM CEST 6:56 PM CEST
Civil Twilight 6:04 AM CEST 7:33 PM CEST
Nautical Twilight 5:20 AM CEST 8:17 PM CEST
Astronomical Twilight 4:33 AM CEST 9:04 PM CEST
Moon 4:40 AM CEST 6:03 PM CEST
Length of Visible Light 13h 28m
Length of Day
12h 14m
Tomorrow will be 4m 36s shorter.
Waning Crescent, 3% of the Moon is Illuminated
Today
Waning Crescent
Sep 24
New
Oct 1
First Quarter
Oct 8
Full
Oct 15
Last Quarter

Yesterday's Extremes

Country Highs Country Lows

Community

WunderPhotos

Upload Photos

1,755,420 photos uploaded!

Nearby

Snow Depth

Not available.

Earthquake Activity

City Distance Mag. Time & Date
No recent earthquake activity has been reported nearby.
Minimum magnitude displayed is 2.5.

Coastal Water Temperatures

Place Temperature
No Stations Reporting

Nearby Weather Stations